sensor_id;sensor_type;location;lat;lon;timestamp;pressure;altitude;pressure_sealevel;temperature;humidity
71194;BME280;58903;47.210;8.618;2023-05-21T00:00:37;93768.88;;;26.29;44.38
71194;BME280;58903;47.210;8.618;2023-05-21T00:03:28;93773.34;;;26.32;44.56
71194;BME280;58903;47.210;8.618;2023-05-21T00:06:18;93768.13;;;26.28;44.50
71194;BME280;58903;47.210;8.618;2023-05-21T00:09:02;93768.88;;;26.29;44.92
71194;BME280;58903;47.210;8.618;2023-05-21T00:11:29;93768.13;;;26.28;44.84
71194;BME280;58903;47.210;8.618;2023-05-21T00:13:55;93768.66;;;26.27;44.56
71194;BME280;58903;47.210;8.618;2023-05-21T00:16:21;93765.16;;;26.26;44.49
71194;BME280;58903;47.210;8.618;2023-05-21T00:18:47;93765.91;;;26.27;45.11
71194;BME280;58903;47.210;8.618;2023-05-21T00:21:27;93760.41;;;26.27;44.85
71194;BME280;58903;47.210;8.618;2023-05-21T00:23:56;93754.88;;;26.27;45.10
71194;BME280;58903;47.210;8.618;2023-05-21T00:26:41;93757.63;;;26.27;44.31
71194;BME280;58903;47.210;8.618;2023-05-21T00:29:14;93760.41;;;26.27;44.45
71194;BME280;58903;47.210;8.618;2023-05-21T00:31:55;93756.16;;;26.26;44.33
71194;BME280;58903;47.210;8.618;2023-05-21T00:34:53;93757.63;;;26.27;44.47
71194;BME280;58903;47.210;8.618;2023-05-21T00:37:30;93748.09;;;26.28;44.32
71194;BME280;58903;47.210;8.618;2023-05-21T00:40:01;93753.38;;;26.26;44.60
71194;BME280;58903;47.210;8.618;2023-05-21T00:42:37;93753.38;;;26.26;44.76
71194;BME280;58903;47.210;8.618;2023-05-21T00:45:07;93747.66;;;26.24;44.58
71194;BME280;58903;47.210;8.618;2023-05-21T00:47:34;93749.16;;;26.25;45.03
71194;BME280;58903;47.210;8.618;2023-05-21T00:50:03;93744.91;;;26.24;44.33
71194;BME280;58903;47.210;8.618;2023-05-21T00:52:43;93745.66;;;26.24;44.53
71194;BME280;58903;47.210;8.618;2023-05-21T00:55:21;93749.16;;;26.25;44.37
71194;BME280;58903;47.210;8.618;2023-05-21T00:58:21;93751.91;;;26.25;44.43
71194;BME280;58903;47.210;8.618;2023-05-21T01:01:22;93742.69;;;26.22;44.74
71194;BME280;58903;47.210;8.618;2023-05-21T01:03:55;93742.16;;;26.24;44.95
71194;BME280;58903;47.210;8.618;2023-05-21T01:06:42;93736.63;;;26.24;44.40
71194;BME280;58903;47.210;8.618;2023-05-21T01:09:28;93736.44;;;26.22;44.62
71194;BME280;58903;47.210;8.618;2023-05-21T01:12:15;93730.91;;;26.22;44.75
71194;BME280;58903;47.210;8.618;2023-05-21T01:14:42;93728.16;;;26.22;44.61
71194;BME280;58903;47.210;8.618;2023-05-21T01:17:42;93735.16;;;26.23;44.69
71194;BME280;58903;47.210;8.618;2023-05-21T01:20:37;93730.91;;;26.22;44.98
71194;BME280;58903;47.210;8.618;2023-05-21T01:26:20;93726.69;;;26.21;44.53
71194;BME280;58903;47.210;8.618;2023-05-21T01:29:06;93730.91;;;26.22;44.18
71194;BME280;58903;47.210;8.618;2023-05-21T01:37:47;93722.22;;;26.17;44.81
71194;BME280;58903;47.210;8.618;2023-05-21T01:47:12;93718.22;;;26.19;44.36
71194;BME280;58903;47.210;8.618;2023-05-21T01:50:16;93720.22;;;26.18;44.86
71194;BME280;58903;47.210;8.618;2023-05-21T01:53:04;93717.47;;;26.18;44.73
71194;BME280;58903;47.210;8.618;2023-05-21T01:55:33;93717.97;;;26.16;44.40
71194;BME280;58903;47.210;8.618;2023-05-21T01:58:00;93714.50;;;26.16;44.94
71194;BME280;58903;47.210;8.618;2023-05-21T02:00:41;93720.72;;;26.16;44.28
71194;BME280;58903;47.210;8.618;2023-05-21T02:03:19;93721.28;;;26.15;44.76
71194;BME280;58903;47.210;8.618;2023-05-21T02:05:55;93720.00;;;26.16;44.77
71194;BME280;58903;47.210;8.618;2023-05-21T02:08:36;93717.25;;;26.16;45.03
71194;BME280;58903;47.210;8.618;2023-05-21T02:11:16;93713.00;;;26.15;44.62
71194;BME280;58903;47.210;8.618;2023-05-21T02:13:47;93719.25;;;26.15;44.88
71194;BME280;58903;47.210;8.618;2023-05-21T02:16:20;93714.06;;;26.12;44.66
71194;BME280;58903;47.210;8.618;2023-05-21T02:19:17;93709.28;;;26.12;44.38
71194;BME280;58903;47.210;8.618;2023-05-21T02:21:47;93710.78;;;26.13;43.93
71194;BME280;58903;47.210;8.618;2023-05-21T02:27:32;93720.53;;;26.14;44.70
71194;BME280;58903;47.210;8.618;2023-05-21T02:30:09;93712.78;;;26.13;44.18
71194;BME280;58903;47.210;8.618;2023-05-21T02:32:44;93703.78;;;26.12;44.91
71194;BME280;58903;47.210;8.618;2023-05-21T02:35:31;93699.75;;;26.13;44.64
71194;BME280;58903;47.210;8.618;2023-05-21T02:38:06;93701.56;;;26.11;44.81
71194;BME280;58903;47.210;8.618;2023-05-21T02:43:39;93695.09;;;26.08;44.55
71194;BME280;58903;47.210;8.618;2023-05-21T02:46:29;93705.06;;;26.11;44.65
71194;BME280;58903;47.210;8.618;2023-05-21T02:52:38;93702.81;;;26.10;44.81
71194;BME280;58903;47.210;8.618;2023-05-21T02:55:33;93699.56;;;26.11;44.04
71194;BME280;58903;47.210;8.618;2023-05-21T02:58:01;93706.31;;;26.10;43.93
71194;BME280;58903;47.210;8.618;2023-05-21T03:00:46;93701.34;;;26.09;44.77
71194;BME280;58903;47.210;8.618;2023-05-21T03:06:58;93695.09;;;26.08;43.96
71194;BME280;58903;47.210;8.618;2023-05-21T03:09:27;93702.09;;;26.09;44.12
71194;BME280;58903;47.210;8.618;2023-05-21T03:12:07;93701.09;;;26.07;43.67
71194;BME280;58903;47.210;8.618;2023-05-21T03:14:32;93706.13;;;26.08;44.32
71194;BME280;58903;47.210;8.618;2023-05-21T03:17:00;93695.59;;;26.07;44.32
71194;BME280;58903;47.210;8.618;2023-05-21T03:19:39;93696.34;;;26.07;44.63
71194;BME280;58903;47.210;8.618;2023-05-21T03:22:06;93702.09;;;26.09;44.54
71194;BME280;58903;47.210;8.618;2023-05-21T03:24:45;93706.63;;;26.07;44.22
71194;BME280;58903;47.210;8.618;2023-05-21T03:27:23;93702.81;;;26.10;44.33
71194;BME280;58903;47.210;8.618;2023-05-21T03:30:04;93708.31;;;26.10;44.73
71194;BME280;58903;47.210;8.618;2023-05-21T03:35:35;93706.63;;;26.07;44.47
71194;BME280;58903;47.210;8.618;2023-05-21T03:41:39;93705.13;;;26.06;43.94
71194;BME280;58903;47.210;8.618;2023-05-21T03:44:05;93707.88;;;26.06;44.14
71194;BME280;58903;47.210;8.618;2023-05-21T03:53:27;93712.22;;;26.01;44.35
71194;BME280;58903;47.210;8.618;2023-05-21T03:55:53;93706.72;;;26.01;44.15
71194;BME280;58903;47.210;8.618;2023-05-21T03:58:29;93714.47;;;26.03;43.95
71194;BME280;58903;47.210;8.618;2023-05-21T04:04:37;93722.53;;;26.01;44.19
71194;BME280;58903;47.210;8.618;2023-05-21T04:07:13;93723.25;;;26.01;44.83
71194;BME280;58903;47.210;8.618;2023-05-21T04:10:12;93726.00;;;26.01;44.86
71194;BME280;58903;47.210;8.618;2023-05-21T04:12:39;93728.03;;;26.01;43.88
71194;BME280;58903;47.210;8.618;2023-05-21T04:18:25;93736.31;;;26.01;44.15
71194;BME280;58903;47.210;8.618;2023-05-21T04:21:12;93734.81;;;26.00;44.85
71194;BME280;58903;47.210;8.618;2023-05-21T04:23:39;93739.06;;;26.01;44.09
71194;BME280;58903;47.210;8.618;2023-05-21T04:26:20;93742.88;;;25.98;44.17
71194;BME280;58903;47.210;8.618;2023-05-21T04:28:56;93743.59;;;25.98;43.95
71194;BME280;58903;47.210;8.618;2023-05-21T04:31:24;93742.88;;;25.98;44.34
71194;BME280;58903;47.210;8.618;2023-05-21T04:33:51;93756.09;;;25.99;44.21
71194;BME280;58903;47.210;8.618;2023-05-21T04:36:17;93757.59;;;26.00;44.43
71194;BME280;58903;47.210;8.618;2023-05-21T04:38:43;93753.34;;;25.99;44.88
71194;BME280;58903;47.210;8.618;2023-05-21T04:41:09;93756.09;;;25.99;44.25
71194;BME280;58903;47.210;8.618;2023-05-21T04:43:38;93763.66;;;25.99;43.81
71194;BME280;58903;47.210;8.618;2023-05-21T04:46:08;93759.59;;;26.00;44.37
71194;BME280;58903;47.210;8.618;2023-05-21T04:48:34;93752.63;;;25.99;44.62
71194;BME280;58903;47.210;8.618;2023-05-21T04:51:01;93756.84;;;26.00;43.92
71194;BME280;58903;47.210;8.618;2023-05-21T04:53:30;93764.38;;;25.99;44.73
71194;BME280;58903;47.210;8.618;2023-05-21T04:55:58;93761.63;;;25.99;44.13
71194;BME280;58903;47.210;8.618;2023-05-21T04:58:27;93761.41;;;25.97;44.08
71194;BME280;58903;47.210;8.618;2023-05-21T05:00:54;93768.41;;;25.98;44.27
71194;BME280;58903;47.210;8.618;2023-05-21T05:03:39;93761.41;;;25.97;43.97
71194;BME280;58903;47.210;8.618;2023-05-21T05:06:25;93767.66;;;25.98;43.91
71194;BME280;58903;47.210;8.618;2023-05-21T05:12:17;93768.50;;;25.93;44.50
71194;BME280;58903;47.210;8.618;2023-05-21T05:14:56;93772.75;;;25.94;44.38
71194;BME280;58903;47.210;8.618;2023-05-21T05:17:22;93767.25;;;25.94;44.81
71194;BME280;58903;47.210;8.618;2023-05-21T05:20:18;93770.00;;;25.94;44.23
71194;BME280;58903;47.210;8.618;2023-05-21T05:26:25;93765.00;;;25.92;44.59
71194;BME280;58903;47.210;8.618;2023-05-21T05:29:00;93767.03;;;25.92;45.07
71194;BME280;58903;47.210;8.618;2023-05-21T05:31:36;93769.78;;;25.92;45.07
71194;BME280;58903;47.210;8.618;2023-05-21T05:34:12;93764.78;;;25.90;45.06
71194;BME280;58903;47.210;8.618;2023-05-21T05:36:39;93763.53;;;25.91;44.51
71194;BME280;58903;47.210;8.618;2023-05-21T05:39:13;93765.75;;;25.93;44.35
71194;BME280;58903;47.210;8.618;2023-05-21T05:41:42;93768.72;;;25.95;44.49
71194;BME280;58903;47.210;8.618;2023-05-21T05:44:09;93776.25;;;25.94;44.36
71194;BME280;58903;47.210;8.618;2023-05-21T05:46:36;93770.75;;;25.94;44.84
71194;BME280;58903;47.210;8.618;2023-05-21T05:49:16;93761.72;;;25.94;44.73
71194;BME280;58903;47.210;8.618;2023-05-21T05:52:19;93768.72;;;25.95;43.84
71194;BME280;58903;47.210;8.618;2023-05-21T05:54:47;93772.00;;;25.93;44.19
71194;BME280;58903;47.210;8.618;2023-05-21T05:57:33;93778.25;;;25.94;44.44
71194;BME280;58903;47.210;8.618;2023-05-21T06:00:32;93770.53;;;25.92;43.94
71194;BME280;58903;47.210;8.618;2023-05-21T06:03:06;93768.28;;;25.91;44.48
71194;BME280;58903;47.210;8.618;2023-05-21T06:05:52;93779.50;;;25.93;44.24
71194;BME280;58903;47.210;8.618;2023-05-21T06:08:39;93772.00;;;25.93;44.02
71194;BME280;58903;47.210;8.618;2023-05-21T06:11:37;93778.78;;;25.92;44.32
71194;BME280;58903;47.210;8.618;2023-05-21T06:14:04;93781.00;;;25.94;44.16
71194;BME280;58903;47.210;8.618;2023-05-21T06:16:40;93781.56;;;25.92;44.87
71194;BME280;58903;47.210;8.618;2023-05-21T06:19:15;93773.03;;;25.90;44.99
71194;BME280;58903;47.210;8.618;2023-05-21T06:21:52;93771.78;;;25.91;45.10
71194;BME280;58903;47.210;8.618;2023-05-21T06:24:37;93771.25;;;25.93;44.47
71194;BME280;58903;47.210;8.618;2023-05-21T06:27:03;93771.25;;;25.93;44.56
71194;BME280;58903;47.210;8.618;2023-05-21T06:29:38;93776.75;;;25.93;45.18
71194;BME280;58903;47.210;8.618;2023-05-21T06:32:08;93773.50;;;25.94;45.06
71194;BME280;58903;47.210;8.618;2023-05-21T06:34:50;93784.72;;;25.96;44.61
71194;BME280;58903;47.210;8.618;2023-05-21T06:37:42;93777.72;;;25.95;44.97
71194;BME280;58903;47.210;8.618;2023-05-21T06:40:42;93779.94;;;25.97;44.61
71194;BME280;58903;47.210;8.618;2023-05-21T06:43:31;93772.41;;;25.97;44.59
71194;BME280;58903;47.210;8.618;2023-05-21T06:45:57;93770.94;;;25.96;44.69
71194;BME280;58903;47.210;8.618;2023-05-21T06:48:40;93780.69;;;25.97;44.41
71194;BME280;58903;47.210;8.618;2023-05-21T06:51:08;93776.69;;;25.98;44.86
71194;BME280;58903;47.210;8.618;2023-05-21T06:53:41;93779.22;;;25.96;44.40
71194;BME280;58903;47.210;8.618;2023-05-21T06:56:14;93784.53;;;25.94;44.87
71194;BME280;58903;47.210;8.618;2023-05-21T06:58:49;93780.91;;;25.99;44.94
71194;BME280;58903;47.210;8.618;2023-05-21T07:01:39;93779.44;;;25.98;44.65
71194;BME280;58903;47.210;8.618;2023-05-21T07:04:07;93787.16;;;26.00;45.16
71194;BME280;58903;47.210;8.618;2023-05-21T07:06:42;93778.69;;;25.98;44.90
71194;BME280;58903;47.210;8.618;2023-05-21T07:09:14;93787.91;;;26.00;45.29
71194;BME280;58903;47.210;8.618;2023-05-21T07:11:40;93782.94;;;25.99;44.96
71194;BME280;58903;47.210;8.618;2023-05-21T07:14:38;93790.66;;;26.00;44.77
71194;BME280;58903;47.210;8.618;2023-05-21T07:17:05;93783.88;;;26.01;44.62
71194;BME280;58903;47.210;8.618;2023-05-21T07:20:05;93789.84;;;26.05;44.53
71194;BME280;58903;47.210;8.618;2023-05-21T07:22:43;93783.56;;;26.05;44.61
71194;BME280;58903;47.210;8.618;2023-05-21T07:25:11;93778.81;;;26.05;45.18
71194;BME280;58903;47.210;8.618;2023-05-21T07:27:46;93786.78;;;26.09;44.92
71194;BME280;58903;47.210;8.618;2023-05-21T07:30:13;93778.28;;;26.07;45.31
71194;BME280;58903;47.210;8.618;2023-05-21T07:33:08;93774.47;;;26.10;45.04
71194;BME280;58903;47.210;8.618;2023-05-21T07:35:36;93767.50;;;26.09;45.81
71194;BME280;58903;47.210;8.618;2023-05-21T07:38:21;93775.97;;;26.11;45.76
71194;BME280;58903;47.210;8.618;2023-05-21T07:44:10;93770.88;;;26.15;45.53
71194;BME280;58903;47.210;8.618;2023-05-21T07:46:48;93770.47;;;26.11;45.78
71194;BME280;58903;47.210;8.618;2023-05-21T07:49:23;93765.69;;;26.11;45.81
71194;BME280;58903;47.210;8.618;2023-05-21T07:52:05;93771.63;;;26.15;45.83
71194;BME280;58903;47.210;8.618;2023-05-21T07:54:39;93775.84;;;26.16;45.92
71194;BME280;58903;47.210;8.618;2023-05-21T07:57:37;93774.59;;;26.17;45.67
71194;BME280;58903;47.210;8.618;2023-05-21T08:00:04;93777.91;;;26.16;45.65
71194;BME280;58903;47.210;8.618;2023-05-21T08:02:43;93785.84;;;26.20;45.52
71194;BME280;58903;47.210;8.618;2023-05-21T08:05:29;93787.34;;;26.21;45.49
71194;BME280;58903;47.210;8.618;2023-05-21T08:07:56;93787.13;;;26.19;45.16
71194;BME280;58903;47.210;8.618;2023-05-21T08:10:40;93783.06;;;26.20;46.11
71194;BME280;58903;47.210;8.618;2023-05-21T08:13:18;93778.09;;;26.18;45.92
71194;BME280;58903;47.210;8.618;2023-05-21T08:16:03;93786.78;;;26.22;46.00
71194;BME280;58903;47.210;8.618;2023-05-21T08:18:29;93788.25;;;26.23;45.31
71194;BME280;58903;47.210;8.618;2023-05-21T08:20:57;93780.53;;;26.22;45.88
71194;BME280;58903;47.210;8.618;2023-05-21T08:23:25;93786.03;;;26.22;45.79
71194;BME280;58903;47.210;8.618;2023-05-21T08:26:02;93777.56;;;26.20;45.88
71194;BME280;58903;47.210;8.618;2023-05-21T08:28:40;93784.78;;;26.23;45.79
71194;BME280;58903;47.210;8.618;2023-05-21T08:31:38;93787.53;;;26.23;45.47
71194;BME280;58903;47.210;8.618;2023-05-21T08:37:27;93787.97;;;26.27;45.07
71194;BME280;58903;47.210;8.618;2023-05-21T08:43:15;93788.50;;;26.25;45.16
71194;BME280;58903;47.210;8.618;2023-05-21T08:45:52;93792.72;;;26.26;45.47
71194;BME280;58903;47.210;8.618;2023-05-21T08:48:30;93789.22;;;26.26;45.12
71194;BME280;58903;47.210;8.618;2023-05-21T08:51:35;93789.22;;;26.26;45.47
71194;BME280;58903;47.210;8.618;2023-05-21T08:54:11;93787.22;;;26.26;45.15
71194;BME280;58903;47.210;8.618;2023-05-21T08:56:52;93786.47;;;26.26;45.25
71194;BME280;58903;47.210;8.618;2023-05-21T08:59:50;93793.69;;;26.29;45.04
71194;BME280;58903;47.210;8.618;2023-05-21T09:02:18;93795.91;;;26.30;45.01
71194;BME280;58903;47.210;8.618;2023-05-21T09:04:56;93793.69;;;26.29;44.72
71194;BME280;58903;47.210;8.618;2023-05-21T09:10:40;93793.91;;;26.31;44.45
71194;BME280;58903;47.210;8.618;2023-05-21T09:13:11;93789.34;;;26.33;44.10
71194;BME280;58903;47.210;8.618;2023-05-21T09:15:42;93786.59;;;26.33;45.21
71194;BME280;58903;47.210;8.618;2023-05-21T09:18:10;93793.56;;;26.34;45.09
71194;BME280;58903;47.210;8.618;2023-05-21T09:20:37;93799.09;;;26.34;45.16
71194;BME280;58903;47.210;8.618;2023-05-21T09:23:16;93798.16;;;26.32;45.09
71194;BME280;58903;47.210;8.618;2023-05-21T09:25:48;93800.59;;;26.35;44.56
71194;BME280;58903;47.210;8.618;2023-05-21T09:28:28;93795.63;;;26.34;44.96
71194;BME280;58903;47.210;8.618;2023-05-21T09:30:54;93801.84;;;26.34;45.58
71194;BME280;58903;47.210;8.618;2023-05-21T09:33:24;93801.34;;;26.36;44.43
71194;BME280;58903;47.210;8.618;2023-05-21T09:35:53;93804.09;;;26.36;45.06
71194;BME280;58903;47.210;8.618;2023-05-21T09:38:21;93805.56;;;26.37;44.55
71194;BME280;58903;47.210;8.618;2023-05-21T09:40:49;93793.78;;;26.36;44.77
71194;BME280;58903;47.210;8.618;2023-05-21T09:43:16;93788.81;;;26.35;44.83
71194;BME280;58903;47.210;8.618;2023-05-21T09:45:55;93793.78;;;26.36;44.66
71194;BME280;58903;47.210;8.618;2023-05-21T09:48:56;93803.22;;;26.41;44.84
71194;BME280;58903;47.210;8.618;2023-05-21T09:51:57;93797.72;;;26.41;44.81
71194;BME280;58903;47.210;8.618;2023-05-21T09:54:39;93794.22;;;26.40;44.49
71194;BME280;58903;47.210;8.618;2023-05-21T09:57:30;93797.72;;;26.41;44.50
71194;BME280;58903;47.210;8.618;2023-05-21T10:00:23;93802.72;;;26.42;44.21
71194;BME280;58903;47.210;8.618;2023-05-21T10:03:08;93798.47;;;26.41;44.31
71194;BME280;58903;47.210;8.618;2023-05-21T10:05:57;93797.72;;;26.41;44.00
71194;BME280;58903;47.210;8.618;2023-05-21T10:08:27;93799.22;;;26.42;44.51
71194;BME280;58903;47.210;8.618;2023-05-21T10:11:21;93789.66;;;26.43;44.19
71194;BME280;58903;47.210;8.618;2023-05-21T10:14:02;93796.66;;;26.44;44.62
71194;BME280;58903;47.210;8.618;2023-05-21T10:16:39;93790.59;;;26.45;44.35
71194;BME280;58903;47.210;8.618;2023-05-21T10:19:21;93786.59;;;26.46;44.13
71194;BME280;58903;47.210;8.618;2023-05-21T10:21:55;93794.31;;;26.48;43.99
71194;BME280;58903;47.210;8.618;2023-05-21T10:24:33;93787.00;;;26.50;44.25
71194;BME280;58903;47.210;8.618;2023-05-21T10:27:11;93784.03;;;26.48;44.44
71194;BME280;58903;47.210;8.618;2023-05-21T10:29:56;93782.75;;;26.49;44.55
71194;BME280;58903;47.210;8.618;2023-05-21T10:32:38;93791.97;;;26.52;45.01
71194;BME280;58903;47.210;8.618;2023-05-21T10:35:08;93790.72;;;26.53;44.60
71194;BME280;58903;47.210;8.618;2023-05-21T10:37:53;93790.50;;;26.51;44.57
71194;BME280;58903;47.210;8.618;2023-05-21T10:40:21;93786.47;;;26.52;44.72
71194;BME280;58903;47.210;8.618;2023-05-21T11:00:19;93778.09;;;26.57;43.86
71194;BME280;58903;47.210;8.618;2023-05-21T11:02:47;93775.56;;;26.59;43.67
71194;BME280;58903;47.210;8.618;2023-05-21T11:05:14;93774.81;;;26.59;43.93
71194;BME280;58903;47.210;8.618;2023-05-21T11:10:52;93770.03;;;26.59;43.81
71194;BME280;58903;47.210;8.618;2023-05-21T11:13:53;93769.50;;;26.61;44.04
71194;BME280;58903;47.210;8.618;2023-05-21T11:16:51;93766.00;;;26.60;43.73
71194;BME280;58903;47.210;8.618;2023-05-21T11:19:44;93772.47;;;26.63;43.59
71194;BME280;58903;47.210;8.618;2023-05-21T11:22:34;93770.44;;;26.63;43.50
71194;BME280;58903;47.210;8.618;2023-05-21T11:25:17;93768.44;;;26.64;43.41
71194;BME280;58903;47.210;8.618;2023-05-21T11:27:46;93765.88;;;26.66;43.57
71194;BME280;58903;47.210;8.618;2023-05-21T11:30:43;93770.13;;;26.67;43.51
71194;BME280;58903;47.210;8.618;2023-05-21T11:33:46;93767.91;;;26.65;43.61
71194;BME280;58903;47.210;8.618;2023-05-21T11:36:30;93767.56;;;26.69;44.17
71194;BME280;58903;47.210;8.618;2023-05-21T11:39:15;93764.81;;;26.69;43.49
71194;BME280;58903;47.210;8.618;2023-05-21T11:42:06;93765.00;;;26.71;43.70
71194;BME280;58903;47.210;8.618;2023-05-21T11:44:55;93759.50;;;26.71;43.24
71194;BME280;58903;47.210;8.618;2023-05-21T11:47:32;93766.75;;;26.74;42.99
71194;BME280;58903;47.210;8.618;2023-05-21T11:50:15;93764.00;;;26.74;43.22
71194;BME280;58903;47.210;8.618;2023-05-21T11:53:16;93766.19;;;26.75;43.41
71194;BME280;58903;47.210;8.618;2023-05-21T11:55:51;93763.66;;;26.77;43.38
71194;BME280;58903;47.210;8.618;2023-05-21T11:58:21;93757.41;;;26.77;43.62
71194;BME280;58903;47.210;8.618;2023-05-21T12:01:22;93759.63;;;26.78;43.49
71194;BME280;58903;47.210;8.618;2023-05-21T12:07:15;93759.97;;;26.75;44.12
71194;BME280;58903;47.210;8.618;2023-05-21T12:09:52;93768.25;;;26.75;43.73
71194;BME280;58903;47.210;8.618;2023-05-21T12:12:37;93755.91;;;26.76;43.53
71194;BME280;58903;47.210;8.618;2023-05-21T12:18:03;93754.13;;;26.78;44.05
71194;BME280;58903;47.210;8.618;2023-05-21T12:20:44;93757.81;;;26.81;44.12
71194;BME280;58903;47.210;8.618;2023-05-21T12:23:28;93763.34;;;26.81;44.04
71194;BME280;58903;47.210;8.618;2023-05-21T12:25:58;93761.53;;;26.83;43.67
71194;BME280;58903;47.210;8.618;2023-05-21T12:28:32;93763.75;;;26.85;43.28
71194;BME280;58903;47.210;8.618;2023-05-21T12:31:00;93768.72;;;26.86;43.63
71194;BME280;58903;47.210;8.618;2023-05-21T12:34:00;93763.75;;;26.85;43.70
71194;BME280;58903;47.210;8.618;2023-05-21T12:43:15;93759.94;;;26.88;43.57
71194;BME280;58903;47.210;8.618;2023-05-21T12:46:12;93762.34;;;26.92;43.71
71194;BME280;58903;47.210;8.618;2023-05-21T12:51:55;93761.94;;;26.87;43.89
71194;BME280;58903;47.210;8.618;2023-05-21T12:58:13;93760.16;;;26.90;43.48
71194;BME280;58903;47.210;8.618;2023-05-21T13:01:09;93764.38;;;26.91;43.65
71194;BME280;58903;47.210;8.618;2023-05-21T13:03:40;93760.34;;;26.92;43.65
71194;BME280;58903;47.210;8.618;2023-05-21T13:09:36;93763.31;;;26.94;43.53
71194;BME280;58903;47.210;8.618;2023-05-21T13:12:11;93767.03;;;26.97;43.51
71194;BME280;58903;47.210;8.618;2023-05-21T13:14:57;93760.97;;;26.98;43.42
71194;BME280;58903;47.210;8.618;2023-05-21T13:17:27;93764.47;;;26.99;43.53
71194;BME280;58903;47.210;8.618;2023-05-21T13:20:14;93760.97;;;26.98;43.53
71194;BME280;58903;47.210;8.618;2023-05-21T13:22:44;93763.38;;;27.02;43.93
71194;BME280;58903;47.210;8.618;2023-05-21T13:25:15;93769.84;;;27.04;43.38
71194;BME280;58903;47.210;8.618;2023-05-21T13:27:42;93764.34;;;27.04;43.11
71194;BME280;58903;47.210;8.618;2023-05-21T13:30:35;93764.34;;;27.04;43.34
71194;BME280;58903;47.210;8.618;2023-05-21T13:33:02;93757.56;;;27.05;43.02
71194;BME280;58903;47.210;8.618;2023-05-21T13:35:44;93771.00;;;27.09;43.24
71194;BME280;58903;47.210;8.618;2023-05-21T13:38:30;93771.41;;;27.13;43.30
71194;BME280;58903;47.210;8.618;2023-05-21T13:41:01;93773.66;;;27.14;43.17
71194;BME280;58903;47.210;8.618;2023-05-21T13:43:41;93772.38;;;27.15;43.25
71194;BME280;58903;47.210;8.618;2023-05-21T13:46:09;93766.66;;;27.13;43.66
71194;BME280;58903;47.210;8.618;2023-05-21T13:48:37;93765.16;;;27.12;43.16
71194;BME280;58903;47.210;8.618;2023-05-21T13:51:24;93770.91;;;27.14;43.08
71194;BME280;58903;47.210;8.618;2023-05-21T13:53:51;93762.28;;;27.18;42.94
71194;BME280;58903;47.210;8.618;2023-05-21T13:56:23;93759.53;;;27.18;43.25
71194;BME280;58903;47.210;8.618;2023-05-21T13:58:52;93761.00;;;27.19;42.96
71194;BME280;58903;47.210;8.618;2023-05-21T14:01:19;93761.22;;;27.21;43.21
71194;BME280;58903;47.210;8.618;2023-05-21T14:03:45;93764.19;;;27.23;43.21
71194;BME280;58903;47.210;8.618;2023-05-21T14:06:12;93766.41;;;27.24;43.16
71194;BME280;58903;47.210;8.618;2023-05-21T14:08:48;93765.34;;;27.27;43.87
71194;BME280;58903;47.210;8.618;2023-05-21T14:11:38;93760.75;;;27.30;43.49
71194;BME280;58903;47.210;8.618;2023-05-21T14:14:04;93759.28;;;27.29;43.73
71194;BME280;58903;47.210;8.618;2023-05-21T14:16:30;93767.88;;;27.25;43.85
71194;BME280;58903;47.210;8.618;2023-05-21T14:18:59;93765.34;;;27.27;43.57
71194;BME280;58903;47.210;8.618;2023-05-21T14:21:25;93756.50;;;27.29;43.59
71194;BME280;58903;47.210;8.618;2023-05-21T14:23:53;93757.78;;;27.28;43.88
71194;BME280;58903;47.210;8.618;2023-05-21T14:26:22;93760.22;;;27.31;43.89
71194;BME280;58903;47.210;8.618;2023-05-21T14:29:17;93767.97;;;27.33;43.61
71194;BME280;58903;47.210;8.618;2023-05-21T14:31:52;93756.38;;;27.34;43.26
71194;BME280;58903;47.210;8.618;2023-05-21T14:34:28;93753.84;;;27.36;43.63
71194;BME280;58903;47.210;8.618;2023-05-21T14:37:09;93753.31;;;27.38;43.60
71194;BME280;58903;47.210;8.618;2023-05-21T14:39:42;93755.53;;;27.39;43.54
71194;BME280;58903;47.210;8.618;2023-05-21T14:42:35;93749.66;;;27.43;44.17
71194;BME280;58903;47.210;8.618;2023-05-21T14:45:01;93743.06;;;27.46;43.48
71194;BME280;58903;47.210;8.618;2023-05-21T14:47:57;93744.03;;;27.48;43.67
71194;BME280;58903;47.210;8.618;2023-05-21T14:50:26;93741.59;;;27.45;43.84
71194;BME280;58903;47.210;8.618;2023-05-21T14:59:49;93743.88;;;27.54;43.14
71194;BME280;58903;47.210;8.618;2023-05-21T15:02:36;93748.66;;;27.53;43.53
71194;BME280;58903;47.210;8.618;2023-05-21T15:05:02;93747.38;;;27.54;43.62
71194;BME280;58903;47.210;8.618;2023-05-21T15:07:40;93748.25;;;27.49;43.69
71194;BME280;58903;47.210;8.618;2023-05-21T15:10:07;93747.94;;;27.53;43.64
71194;BME280;58903;47.210;8.618;2023-05-21T15:13:03;93745.19;;;27.53;43.66
71194;BME280;58903;47.210;8.618;2023-05-21T15:15:44;93743.69;;;27.52;43.17
71194;BME280;58903;47.210;8.618;2023-05-21T15:18:30;93757.69;;;27.54;43.60
71194;BME280;58903;47.210;8.618;2023-05-21T15:21:07;93747.38;;;27.54;43.84
71194;BME280;58903;47.210;8.618;2023-05-21T15:23:51;93748.66;;;27.53;44.31
71194;BME280;58903;47.210;8.618;2023-05-21T15:26:35;93759.94;;;27.55;44.14
71194;BME280;58903;47.210;8.618;2023-05-21T15:29:12;93750.34;;;27.56;43.69
71194;BME280;58903;47.210;8.618;2023-05-21T15:31:39;93747.78;;;27.58;43.96
71194;BME280;58903;47.210;8.618;2023-05-21T15:34:06;93742.47;;;27.60;43.60
71194;BME280;58903;47.210;8.618;2023-05-21T15:36:42;93748.19;;;27.62;43.59
71194;BME280;58903;47.210;8.618;2023-05-21T15:42:48;93750.44;;;27.64;43.81
71194;BME280;58903;47.210;8.618;2023-05-21T15:48:42;93752.84;;;27.68;43.64
71194;BME280;58903;47.210;8.618;2023-05-21T15:51:10;93752.84;;;27.68;44.23
71194;BME280;58903;47.210;8.618;2023-05-21T15:53:36;93746.06;;;27.69;43.24
71194;BME280;58903;47.210;8.618;2023-05-21T15:56:04;93754.53;;;27.71;42.59
71194;BME280;58903;47.210;8.618;2023-05-21T15:58:33;93750.28;;;27.70;42.90
71194;BME280;58903;47.210;8.618;2023-05-21T16:00:59;93746.97;;;27.71;42.95